sensor_id;sensor_type;location;lat;lon;timestamp;P1;durP1;ratioP1;P2;durP2;ratioP2
2538;SDS011;1280;49.760;9.664;2023-06-24T00:00:25;8.43;;;5.67;;
2538;SDS011;1280;49.760;9.664;2023-06-24T00:02:53;9.70;;;6.07;;
2538;SDS011;1280;49.760;9.664;2023-06-24T00:05:22;10.80;;;5.40;;
2538;SDS011;1280;49.760;9.664;2023-06-24T00:07:50;9.10;;;6.00;;
2538;SDS011;1280;49.760;9.664;2023-06-24T00:10:19;8.90;;;5.37;;
2538;SDS011;1280;49.760;9.664;2023-06-24T00:12:47;12.53;;;6.00;;
2538;SDS011;1280;49.760;9.664;2023-06-24T00:15:16;9.00;;;5.73;;
2538;SDS011;1280;49.760;9.664;2023-06-24T00:20:32;9.60;;;5.60;;
2538;SDS011;1280;49.760;9.664;2023-06-24T00:23:01;10.33;;;6.03;;
2538;SDS011;1280;49.760;9.664;2023-06-24T00:25:29;9.40;;;6.10;;
2538;SDS011;1280;49.760;9.664;2023-06-24T00:27:57;10.77;;;5.87;;
2538;SDS011;1280;49.760;9.664;2023-06-24T00:30:27;9.47;;;6.00;;
2538;SDS011;1280;49.760;9.664;2023-06-24T00:32:55;9.53;;;5.90;;
2538;SDS011;1280;49.760;9.664;2023-06-24T00:35:23;11.03;;;6.53;;
2538;SDS011;1280;49.760;9.664;2023-06-24T00:37:52;9.20;;;5.57;;
2538;SDS011;1280;49.760;9.664;2023-06-24T00:40:24;10.10;;;5.53;;
2538;SDS011;1280;49.760;9.664;2023-06-24T00:42:52;8.17;;;4.93;;
2538;SDS011;1280;49.760;9.664;2023-06-24T00:45:21;8.00;;;4.87;;
2538;SDS011;1280;49.760;9.664;2023-06-24T00:47:51;10.90;;;5.03;;
2538;SDS011;1280;49.760;9.664;2023-06-24T00:50:20;9.83;;;5.47;;
2538;SDS011;1280;49.760;9.664;2023-06-24T00:52:48;11.40;;;5.30;;
2538;SDS011;1280;49.760;9.664;2023-06-24T00:55:16;7.87;;;5.57;;
2538;SDS011;1280;49.760;9.664;2023-06-24T00:57:46;9.47;;;6.00;;
2538;SDS011;1280;49.760;9.664;2023-06-24T01:00:17;9.40;;;5.40;;
2538;SDS011;1280;49.760;9.664;2023-06-24T01:02:46;9.10;;;5.10;;
2538;SDS011;1280;49.760;9.664;2023-06-24T01:05:17;10.50;;;5.67;;
2538;SDS011;1280;49.760;9.664;2023-06-24T01:07:46;10.77;;;5.90;;
2538;SDS011;1280;49.760;9.664;2023-06-24T01:10:21;10.20;;;5.37;;
2538;SDS011;1280;49.760;9.664;2023-06-24T01:12:50;7.87;;;5.00;;
2538;SDS011;1280;49.760;9.664;2023-06-24T01:15:18;9.43;;;5.97;;
2538;SDS011;1280;49.760;9.664;2023-06-24T01:17:49;8.10;;;4.70;;
2538;SDS011;1280;49.760;9.664;2023-06-24T01:20:27;8.00;;;4.83;;
2538;SDS011;1280;49.760;9.664;2023-06-24T01:23:06;12.30;;;4.83;;
2538;SDS011;1280;49.760;9.664;2023-06-24T01:25:53;9.93;;;5.17;;
2538;SDS011;1280;49.760;9.664;2023-06-24T01:28:47;13.73;;;4.50;;
2538;SDS011;1280;49.760;9.664;2023-06-24T01:31:35;11.33;;;5.23;;
2538;SDS011;1280;49.760;9.664;2023-06-24T01:34:10;14.00;;;5.30;;
2538;SDS011;1280;49.760;9.664;2023-06-24T01:36:47;11.90;;;5.70;;
2538;SDS011;1280;49.760;9.664;2023-06-24T01:39:20;9.13;;;5.37;;
2538;SDS011;1280;49.760;9.664;2023-06-24T01:41:54;11.10;;;5.70;;
2538;SDS011;1280;49.760;9.664;2023-06-24T01:44:31;13.93;;;4.80;;
2538;SDS011;1280;49.760;9.664;2023-06-24T01:47:02;10.00;;;5.47;;
2538;SDS011;1280;49.760;9.664;2023-06-24T01:49:32;11.97;;;4.93;;
2538;SDS011;1280;49.760;9.664;2023-06-24T01:52:11;16.23;;;5.30;;
2538;SDS011;1280;49.760;9.664;2023-06-24T01:54:40;9.07;;;5.33;;
2538;SDS011;1280;49.760;9.664;2023-06-24T01:57:09;12.20;;;5.53;;
2538;SDS011;1280;49.760;9.664;2023-06-24T01:59:39;11.40;;;5.10;;
2538;SDS011;1280;49.760;9.664;2023-06-24T02:02:11;10.23;;;5.30;;
2538;SDS011;1280;49.760;9.664;2023-06-24T02:04:42;12.10;;;5.60;;
2538;SDS011;1280;49.760;9.664;2023-06-24T02:07:12;11.67;;;5.13;;
2538;SDS011;1280;49.760;9.664;2023-06-24T02:09:41;11.73;;;4.97;;
2538;SDS011;1280;49.760;9.664;2023-06-24T02:12:11;13.27;;;6.03;;
2538;SDS011;1280;49.760;9.664;2023-06-24T02:14:40;9.80;;;5.30;;
2538;SDS011;1280;49.760;9.664;2023-06-24T02:17:11;11.07;;;5.57;;
2538;SDS011;1280;49.760;9.664;2023-06-24T02:19:41;10.90;;;5.40;;
2538;SDS011;1280;49.760;9.664;2023-06-24T02:22:10;9.10;;;5.83;;
2538;SDS011;1280;49.760;9.664;2023-06-24T02:24:39;14.80;;;5.97;;
2538;SDS011;1280;49.760;9.664;2023-06-24T02:27:08;14.30;;;6.60;;
2538;SDS011;1280;49.760;9.664;2023-06-24T02:29:38;11.40;;;5.83;;
2538;SDS011;1280;49.760;9.664;2023-06-24T02:32:07;14.30;;;6.90;;
2538;SDS011;1280;49.760;9.664;2023-06-24T02:34:37;14.00;;;6.73;;
2538;SDS011;1280;49.760;9.664;2023-06-24T02:37:06;14.43;;;6.10;;
2538;SDS011;1280;49.760;9.664;2023-06-24T02:39:34;12.50;;;6.50;;
2538;SDS011;1280;49.760;9.664;2023-06-24T02:42:04;11.97;;;5.00;;
2538;SDS011;1280;49.760;9.664;2023-06-24T02:44:32;18.50;;;5.90;;
2538;SDS011;1280;49.760;9.664;2023-06-24T02:47:00;28.43;;;5.83;;
2538;SDS011;1280;49.760;9.664;2023-06-24T02:49:29;18.63;;;6.27;;
2538;SDS011;1280;49.760;9.664;2023-06-24T02:51:59;10.63;;;4.73;;
2538;SDS011;1280;49.760;9.664;2023-06-24T02:54:28;8.33;;;4.70;;
2538;SDS011;1280;49.760;9.664;2023-06-24T02:57:28;12.77;;;5.10;;
2538;SDS011;1280;49.760;9.664;2023-06-24T03:00:13;11.77;;;5.80;;
2538;SDS011;1280;49.760;9.664;2023-06-24T03:03:04;12.70;;;5.57;;
2538;SDS011;1280;49.760;9.664;2023-06-24T03:05:36;16.93;;;4.93;;
2538;SDS011;1280;49.760;9.664;2023-06-24T03:08:07;16.83;;;5.77;;
2538;SDS011;1280;49.760;9.664;2023-06-24T03:10:36;11.40;;;6.67;;
2538;SDS011;1280;49.760;9.664;2023-06-24T03:13:08;11.50;;;5.40;;
2538;SDS011;1280;49.760;9.664;2023-06-24T03:15:43;14.43;;;6.00;;
2538;SDS011;1280;49.760;9.664;2023-06-24T03:18:12;12.93;;;5.70;;
2538;SDS011;1280;49.760;9.664;2023-06-24T03:20:40;8.70;;;5.60;;
2538;SDS011;1280;49.760;9.664;2023-06-24T03:25:58;19.07;;;7.17;;
2538;SDS011;1280;49.760;9.664;2023-06-24T03:28:29;10.10;;;5.80;;
2538;SDS011;1280;49.760;9.664;2023-06-24T03:31:07;14.63;;;5.80;;
2538;SDS011;1280;49.760;9.664;2023-06-24T03:33:37;18.40;;;6.00;;
2538;SDS011;1280;49.760;9.664;2023-06-24T03:36:12;13.30;;;5.37;;
2538;SDS011;1280;49.760;9.664;2023-06-24T03:38:41;15.63;;;6.30;;
2538;SDS011;1280;49.760;9.664;2023-06-24T03:41:09;20.73;;;6.10;;
2538;SDS011;1280;49.760;9.664;2023-06-24T03:43:37;15.73;;;6.03;;
2538;SDS011;1280;49.760;9.664;2023-06-24T03:46:08;11.50;;;5.67;;
2538;SDS011;1280;49.760;9.664;2023-06-24T03:48:37;12.27;;;5.37;;
2538;SDS011;1280;49.760;9.664;2023-06-24T03:51:05;12.27;;;5.43;;
2538;SDS011;1280;49.760;9.664;2023-06-24T03:53:33;13.97;;;5.50;;
2538;SDS011;1280;49.760;9.664;2023-06-24T03:56:02;9.33;;;5.50;;
2538;SDS011;1280;49.760;9.664;2023-06-24T03:58:31;13.00;;;5.67;;
2538;SDS011;1280;49.760;9.664;2023-06-24T04:00:59;18.23;;;5.50;;
2538;SDS011;1280;49.760;9.664;2023-06-24T04:03:27;14.03;;;6.23;;
2538;SDS011;1280;49.760;9.664;2023-06-24T04:05:57;15.20;;;5.83;;
2538;SDS011;1280;49.760;9.664;2023-06-24T04:08:25;12.80;;;6.03;;
2538;SDS011;1280;49.760;9.664;2023-06-24T04:10:55;12.57;;;5.40;;
2538;SDS011;1280;49.760;9.664;2023-06-24T04:13:27;10.07;;;5.90;;
2538;SDS011;1280;49.760;9.664;2023-06-24T04:15:55;12.20;;;5.80;;
2538;SDS011;1280;49.760;9.664;2023-06-24T04:18:23;9.00;;;5.50;;
2538;SDS011;1280;49.760;9.664;2023-06-24T04:20:52;15.80;;;6.87;;
2538;SDS011;1280;49.760;9.664;2023-06-24T04:23:20;17.40;;;6.30;;
2538;SDS011;1280;49.760;9.664;2023-06-24T04:25:49;13.03;;;5.80;;
2538;SDS011;1280;49.760;9.664;2023-06-24T04:28:20;11.60;;;6.00;;
2538;SDS011;1280;49.760;9.664;2023-06-24T04:30:50;8.87;;;5.10;;
2538;SDS011;1280;49.760;9.664;2023-06-24T04:33:18;13.93;;;6.13;;
2538;SDS011;1280;49.760;9.664;2023-06-24T04:35:46;11.50;;;6.33;;
2538;SDS011;1280;49.760;9.664;2023-06-24T04:38:14;11.17;;;6.00;;
2538;SDS011;1280;49.760;9.664;2023-06-24T04:40:46;12.97;;;5.83;;
2538;SDS011;1280;49.760;9.664;2023-06-24T04:43:14;14.13;;;6.20;;
2538;SDS011;1280;49.760;9.664;2023-06-24T04:45:42;9.27;;;5.53;;
2538;SDS011;1280;49.760;9.664;2023-06-24T04:48:11;24.60;;;6.27;;
2538;SDS011;1280;49.760;9.664;2023-06-24T04:50:40;12.67;;;5.83;;
2538;SDS011;1280;49.760;9.664;2023-06-24T04:53:08;12.27;;;5.83;;
2538;SDS011;1280;49.760;9.664;2023-06-24T04:55:36;13.23;;;6.10;;
2538;SDS011;1280;49.760;9.664;2023-06-24T04:58:04;18.67;;;6.50;;
2538;SDS011;1280;49.760;9.664;2023-06-24T05:00:32;18.83;;;6.47;;
2538;SDS011;1280;49.760;9.664;2023-06-24T05:05:39;13.40;;;5.60;;
2538;SDS011;1280;49.760;9.664;2023-06-24T05:08:08;17.17;;;6.27;;
2538;SDS011;1280;49.760;9.664;2023-06-24T05:10:37;9.07;;;6.00;;
2538;SDS011;1280;49.760;9.664;2023-06-24T05:13:05;11.63;;;6.67;;
2538;SDS011;1280;49.760;9.664;2023-06-24T05:15:32;16.50;;;6.90;;
2538;SDS011;1280;49.760;9.664;2023-06-24T05:18:02;12.00;;;7.47;;
2538;SDS011;1280;49.760;9.664;2023-06-24T05:20:31;12.87;;;7.27;;
2538;SDS011;1280;49.760;9.664;2023-06-24T05:22:59;10.70;;;7.00;;
2538;SDS011;1280;49.760;9.664;2023-06-24T05:25:27;14.30;;;7.63;;
2538;SDS011;1280;49.760;9.664;2023-06-24T05:27:55;12.23;;;6.90;;
2538;SDS011;1280;49.760;9.664;2023-06-24T05:30:23;11.43;;;7.00;;
2538;SDS011;1280;49.760;9.664;2023-06-24T05:32:52;13.17;;;7.33;;
2538;SDS011;1280;49.760;9.664;2023-06-24T05:35:20;14.80;;;7.07;;
2538;SDS011;1280;49.760;9.664;2023-06-24T05:37:50;10.33;;;7.23;;
2538;SDS011;1280;49.760;9.664;2023-06-24T05:40:25;13.20;;;6.90;;
2538;SDS011;1280;49.760;9.664;2023-06-24T05:42:53;10.97;;;7.13;;
2538;SDS011;1280;49.760;9.664;2023-06-24T05:45:21;11.53;;;6.63;;
2538;SDS011;1280;49.760;9.664;2023-06-24T05:47:49;9.63;;;6.17;;
2538;SDS011;1280;49.760;9.664;2023-06-24T05:50:17;10.20;;;6.40;;
2538;SDS011;1280;49.760;9.664;2023-06-24T05:52:45;11.10;;;5.83;;
2538;SDS011;1280;49.760;9.664;2023-06-24T05:55:14;11.20;;;7.07;;
2538;SDS011;1280;49.760;9.664;2023-06-24T05:57:42;10.40;;;6.07;;
2538;SDS011;1280;49.760;9.664;2023-06-24T06:00:11;10.87;;;7.00;;
2538;SDS011;1280;49.760;9.664;2023-06-24T06:02:41;9.43;;;6.70;;
2538;SDS011;1280;49.760;9.664;2023-06-24T06:05:09;12.10;;;6.40;;
2538;SDS011;1280;49.760;9.664;2023-06-24T06:07:37;11.90;;;6.50;;
2538;SDS011;1280;49.760;9.664;2023-06-24T06:10:08;11.10;;;6.20;;
2538;SDS011;1280;49.760;9.664;2023-06-24T06:12:38;11.20;;;5.70;;
2538;SDS011;1280;49.760;9.664;2023-06-24T06:15:06;9.57;;;5.80;;
2538;SDS011;1280;49.760;9.664;2023-06-24T06:17:35;10.37;;;5.27;;
2538;SDS011;1280;49.760;9.664;2023-06-24T06:20:03;11.60;;;5.73;;
2538;SDS011;1280;49.760;9.664;2023-06-24T06:22:32;10.73;;;6.37;;
2538;SDS011;1280;49.760;9.664;2023-06-24T06:25:05;10.10;;;5.70;;
2538;SDS011;1280;49.760;9.664;2023-06-24T06:27:33;13.23;;;6.57;;
2538;SDS011;1280;49.760;9.664;2023-06-24T06:30:02;9.47;;;5.60;;
2538;SDS011;1280;49.760;9.664;2023-06-24T06:32:31;10.23;;;6.20;;
2538;SDS011;1280;49.760;9.664;2023-06-24T06:34:59;8.70;;;5.53;;
2538;SDS011;1280;49.760;9.664;2023-06-24T06:37:27;8.00;;;5.20;;
2538;SDS011;1280;49.760;9.664;2023-06-24T06:39:55;11.77;;;6.50;;
2538;SDS011;1280;49.760;9.664;2023-06-24T06:45:07;8.93;;;5.90;;
2538;SDS011;1280;49.760;9.664;2023-06-24T06:47:35;10.50;;;6.53;;
2538;SDS011;1280;49.760;9.664;2023-06-24T06:50:04;11.83;;;6.57;;
2538;SDS011;1280;49.760;9.664;2023-06-24T06:52:32;9.00;;;6.47;;
2538;SDS011;1280;49.760;9.664;2023-06-24T06:55:01;10.37;;;6.53;;
2538;SDS011;1280;49.760;9.664;2023-06-24T06:57:28;9.73;;;6.00;;
2538;SDS011;1280;49.760;9.664;2023-06-24T06:59:58;9.13;;;6.00;;
2538;SDS011;1280;49.760;9.664;2023-06-24T07:02:27;11.37;;;6.37;;
2538;SDS011;1280;49.760;9.664;2023-06-24T07:04:55;13.70;;;6.97;;
2538;SDS011;1280;49.760;9.664;2023-06-24T07:07:23;11.60;;;7.13;;
2538;SDS011;1280;49.760;9.664;2023-06-24T07:09:51;8.83;;;5.80;;
2538;SDS011;1280;49.760;9.664;2023-06-24T07:12:19;10.07;;;5.73;;
2538;SDS011;1280;49.760;9.664;2023-06-24T07:14:50;8.30;;;5.70;;
2538;SDS011;1280;49.760;9.664;2023-06-24T07:17:18;9.00;;;6.10;;
2538;SDS011;1280;49.760;9.664;2023-06-24T07:19:48;9.20;;;5.73;;
2538;SDS011;1280;49.760;9.664;2023-06-24T07:22:16;12.57;;;5.80;;
2538;SDS011;1280;49.760;9.664;2023-06-24T07:24:43;14.67;;;6.13;;
2538;SDS011;1280;49.760;9.664;2023-06-24T07:27:11;12.03;;;6.80;;
2538;SDS011;1280;49.760;9.664;2023-06-24T07:29:39;11.43;;;5.87;;
2538;SDS011;1280;49.760;9.664;2023-06-24T07:32:08;8.60;;;5.40;;
2538;SDS011;1280;49.760;9.664;2023-06-24T07:34:36;10.90;;;6.00;;
2538;SDS011;1280;49.760;9.664;2023-06-24T07:37:05;8.90;;;4.77;;
2538;SDS011;1280;49.760;9.664;2023-06-24T07:39:48;9.20;;;6.13;;
2538;SDS011;1280;49.760;9.664;2023-06-24T07:42:16;9.37;;;5.87;;
2538;SDS011;1280;49.760;9.664;2023-06-24T07:44:45;9.13;;;6.03;;
2538;SDS011;1280;49.760;9.664;2023-06-24T07:47:13;8.33;;;5.67;;
2538;SDS011;1280;49.760;9.664;2023-06-24T07:49:41;12.77;;;6.40;;
2538;SDS011;1280;49.760;9.664;2023-06-24T07:52:11;9.77;;;6.40;;
2538;SDS011;1280;49.760;9.664;2023-06-24T07:54:38;9.97;;;6.20;;
2538;SDS011;1280;49.760;9.664;2023-06-24T07:57:06;8.07;;;5.73;;
2538;SDS011;1280;49.760;9.664;2023-06-24T08:02:06;9.77;;;5.83;;
2538;SDS011;1280;49.760;9.664;2023-06-24T08:04:34;8.07;;;5.40;;
2538;SDS011;1280;49.760;9.664;2023-06-24T08:07:02;8.90;;;5.90;;
2538;SDS011;1280;49.760;9.664;2023-06-24T08:09:32;10.00;;;5.80;;
2538;SDS011;1280;49.760;9.664;2023-06-24T08:12:00;11.47;;;5.60;;
2538;SDS011;1280;49.760;9.664;2023-06-24T08:14:28;9.07;;;6.00;;
2538;SDS011;1280;49.760;9.664;2023-06-24T08:16:56;8.20;;;5.83;;
2538;SDS011;1280;49.760;9.664;2023-06-24T08:19:24;9.40;;;6.20;;
2538;SDS011;1280;49.760;9.664;2023-06-24T08:21:52;10.77;;;6.10;;
2538;SDS011;1280;49.760;9.664;2023-06-24T08:24:20;8.60;;;6.17;;
2538;SDS011;1280;49.760;9.664;2023-06-24T08:26:49;10.67;;;6.50;;
2538;SDS011;1280;49.760;9.664;2023-06-24T08:29:23;11.73;;;6.87;;
2538;SDS011;1280;49.760;9.664;2023-06-24T08:31:51;10.33;;;6.27;;
2538;SDS011;1280;49.760;9.664;2023-06-24T08:34:19;11.17;;;6.60;;
2538;SDS011;1280;49.760;9.664;2023-06-24T08:36:47;9.43;;;5.93;;
2538;SDS011;1280;49.760;9.664;2023-06-24T08:39:15;12.20;;;5.40;;
2538;SDS011;1280;49.760;9.664;2023-06-24T08:41:43;8.80;;;5.33;;
2538;SDS011;1280;49.760;9.664;2023-06-24T08:44:13;9.63;;;5.10;;
2538;SDS011;1280;49.760;9.664;2023-06-24T08:46:42;7.57;;;4.77;;
2538;SDS011;1280;49.760;9.664;2023-06-24T08:49:12;9.00;;;4.87;;
2538;SDS011;1280;49.760;9.664;2023-06-24T08:51:50;12.53;;;5.77;;
2538;SDS011;1280;49.760;9.664;2023-06-24T08:54:22;8.77;;;4.90;;
2538;SDS011;1280;49.760;9.664;2023-06-24T08:56:51;6.43;;;3.87;;
2538;SDS011;1280;49.760;9.664;2023-06-24T08:59:21;9.43;;;4.50;;
2538;SDS011;1280;49.760;9.664;2023-06-24T09:01:49;9.43;;;4.70;;
2538;SDS011;1280;49.760;9.664;2023-06-24T09:04:19;10.23;;;4.47;;
2538;SDS011;1280;49.760;9.664;2023-06-24T09:06:47;9.20;;;4.47;;
2538;SDS011;1280;49.760;9.664;2023-06-24T09:09:19;7.93;;;4.93;;
2538;SDS011;1280;49.760;9.664;2023-06-24T09:11:50;10.73;;;4.93;;
2538;SDS011;1280;49.760;9.664;2023-06-24T09:14:20;8.33;;;5.50;;
2538;SDS011;1280;49.760;9.664;2023-06-24T09:16:53;11.30;;;5.77;;
2538;SDS011;1280;49.760;9.664;2023-06-24T09:19:27;9.27;;;6.33;;
2538;SDS011;1280;49.760;9.664;2023-06-24T09:21:56;12.93;;;6.07;;
2538;SDS011;1280;49.760;9.664;2023-06-24T09:24:29;10.97;;;5.57;;
2538;SDS011;1280;49.760;9.664;2023-06-24T09:26:58;10.47;;;5.70;;
2538;SDS011;1280;49.760;9.664;2023-06-24T09:29:32;8.13;;;4.77;;
2538;SDS011;1280;49.760;9.664;2023-06-24T09:32:03;10.37;;;5.80;;
2538;SDS011;1280;49.760;9.664;2023-06-24T09:34:32;12.43;;;7.03;;
2538;SDS011;1280;49.760;9.664;2023-06-24T09:37:00;16.03;;;7.87;;
2538;SDS011;1280;49.760;9.664;2023-06-24T09:39:28;11.60;;;6.37;;
2538;SDS011;1280;49.760;9.664;2023-06-24T09:42:02;12.00;;;6.80;;
2538;SDS011;1280;49.760;9.664;2023-06-24T09:44:32;9.57;;;6.23;;
2538;SDS011;1280;49.760;9.664;2023-06-24T09:47:01;9.70;;;5.67;;
2538;SDS011;1280;49.760;9.664;2023-06-24T09:49:29;10.10;;;5.80;;
2538;SDS011;1280;49.760;9.664;2023-06-24T09:51:57;8.63;;;5.67;;
2538;SDS011;1280;49.760;9.664;2023-06-24T09:54:27;9.20;;;5.90;;
2538;SDS011;1280;49.760;9.664;2023-06-24T09:57:01;9.63;;;5.77;;
2538;SDS011;1280;49.760;9.664;2023-06-24T09:59:30;9.40;;;5.40;;
2538;SDS011;1280;49.760;9.664;2023-06-24T10:02:01;9.53;;;5.50;;
2538;SDS011;1280;49.760;9.664;2023-06-24T10:04:30;9.87;;;5.80;;
2538;SDS011;1280;49.760;9.664;2023-06-24T10:06:59;7.80;;;5.30;;
2538;SDS011;1280;49.760;9.664;2023-06-24T10:09:28;8.90;;;5.37;;
2538;SDS011;1280;49.760;9.664;2023-06-24T10:11:57;8.07;;;5.50;;
2538;SDS011;1280;49.760;9.664;2023-06-24T10:14:26;9.07;;;4.87;;
2538;SDS011;1280;49.760;9.664;2023-06-24T10:17:01;9.80;;;5.40;;
2538;SDS011;1280;49.760;9.664;2023-06-24T10:19:30;8.43;;;4.93;;
2538;SDS011;1280;49.760;9.664;2023-06-24T10:22:07;8.00;;;4.30;;
2538;SDS011;1280;49.760;9.664;2023-06-24T10:24:36;9.23;;;5.10;;
2538;SDS011;1280;49.760;9.664;2023-06-24T10:27:06;7.60;;;4.53;;
2538;SDS011;1280;49.760;9.664;2023-06-24T10:29:37;8.20;;;4.90;;
2538;SDS011;1280;49.760;9.664;2023-06-24T10:32:07;10.77;;;5.23;;
2538;SDS011;1280;49.760;9.664;2023-06-24T10:34:39;7.90;;;5.23;;
2538;SDS011;1280;49.760;9.664;2023-06-24T10:37:08;11.50;;;5.73;;
2538;SDS011;1280;49.760;9.664;2023-06-24T10:39:38;8.07;;;4.97;;
2538;SDS011;1280;49.760;9.664;2023-06-24T10:44:55;7.30;;;4.77;;
2538;SDS011;1280;49.760;9.664;2023-06-24T10:47:25;9.30;;;5.10;;
2538;SDS011;1280;49.760;9.664;2023-06-24T10:49:54;10.93;;;5.80;;
2538;SDS011;1280;49.760;9.664;2023-06-24T10:52:23;9.00;;;5.10;;
2538;SDS011;1280;49.760;9.664;2023-06-24T10:54:51;8.40;;;5.00;;
2538;SDS011;1280;49.760;9.664;2023-06-24T10:57:20;8.90;;;5.27;;
2538;SDS011;1280;49.760;9.664;2023-06-24T10:59:50;10.13;;;5.50;;
2538;SDS011;1280;49.760;9.664;2023-06-24T11:02:20;11.63;;;5.00;;
2538;SDS011;1280;49.760;9.664;2023-06-24T11:04:51;9.10;;;4.80;;
2538;SDS011;1280;49.760;9.664;2023-06-24T11:07:20;8.53;;;4.97;;
2538;SDS011;1280;49.760;9.664;2023-06-24T11:09:51;7.50;;;4.80;;
2538;SDS011;1280;49.760;9.664;2023-06-24T11:12:22;7.50;;;5.03;;
2538;SDS011;1280;49.760;9.664;2023-06-24T11:17:24;8.43;;;4.73;;
2538;SDS011;1280;49.760;9.664;2023-06-24T11:19:54;8.27;;;4.87;;
2538;SDS011;1280;49.760;9.664;2023-06-24T11:22:23;7.37;;;4.80;;
2538;SDS011;1280;49.760;9.664;2023-06-24T11:24:52;7.30;;;4.70;;
2538;SDS011;1280;49.760;9.664;2023-06-24T11:27:24;8.00;;;4.83;;
2538;SDS011;1280;49.760;9.664;2023-06-24T11:29:53;8.77;;;4.00;;
2538;SDS011;1280;49.760;9.664;2023-06-24T11:32:21;7.63;;;4.73;;
2538;SDS011;1280;49.760;9.664;2023-06-24T11:34:49;7.73;;;5.03;;
2538;SDS011;1280;49.760;9.664;2023-06-24T11:37:19;7.20;;;4.37;;
2538;SDS011;1280;49.760;9.664;2023-06-24T11:40:00;9.60;;;5.10;;
2538;SDS011;1280;49.760;9.664;2023-06-24T11:42:31;7.50;;;4.80;;
2538;SDS011;1280;49.760;9.664;2023-06-24T11:44:59;8.50;;;4.67;;
2538;SDS011;1280;49.760;9.664;2023-06-24T11:47:33;10.70;;;4.83;;
2538;SDS011;1280;49.760;9.664;2023-06-24T11:50:02;6.90;;;4.30;;
2538;SDS011;1280;49.760;9.664;2023-06-24T11:52:33;8.20;;;4.57;;
2538;SDS011;1280;49.760;9.664;2023-06-24T11:55:13;9.73;;;4.17;;
2538;SDS011;1280;49.760;9.664;2023-06-24T11:57:47;10.50;;;5.40;;
2538;SDS011;1280;49.760;9.664;2023-06-24T12:00:19;8.90;;;5.07;;
2538;SDS011;1280;49.760;9.664;2023-06-24T12:02:50;8.27;;;4.80;;
2538;SDS011;1280;49.760;9.664;2023-06-24T12:05:22;7.73;;;4.30;;
2538;SDS011;1280;49.760;9.664;2023-06-24T12:07:57;10.77;;;5.03;;
2538;SDS011;1280;49.760;9.664;2023-06-24T12:10:27;11.03;;;5.50;;
2538;SDS011;1280;49.760;9.664;2023-06-24T12:12:56;7.47;;;4.33;;
2538;SDS011;1280;49.760;9.664;2023-06-24T12:15:25;14.10;;;5.60;;
2538;SDS011;1280;49.760;9.664;2023-06-24T12:17:53;14.57;;;5.30;;
2538;SDS011;1280;49.760;9.664;2023-06-24T12:20:21;8.00;;;5.07;;
2538;SDS011;1280;49.760;9.664;2023-06-24T12:22:56;9.13;;;5.00;;
2538;SDS011;1280;49.760;9.664;2023-06-24T12:25:24;7.80;;;4.70;;
2538;SDS011;1280;49.760;9.664;2023-06-24T12:28:07;9.20;;;5.20;;
2538;SDS011;1280;49.760;9.664;2023-06-24T12:33:59;10.30;;;4.60;;
2538;SDS011;1280;49.760;9.664;2023-06-24T12:36:28;7.50;;;4.57;;
2538;SDS011;1280;49.760;9.664;2023-06-24T12:38:57;7.70;;;4.80;;
2538;SDS011;1280;49.760;9.664;2023-06-24T12:41:25;9.00;;;4.67;;
2538;SDS011;1280;49.760;9.664;2023-06-24T12:43:54;9.20;;;4.30;;
2538;SDS011;1280;49.760;9.664;2023-06-24T12:46:22;8.90;;;4.73;;
2538;SDS011;1280;49.760;9.664;2023-06-24T12:48:50;7.50;;;5.10;;
2538;SDS011;1280;49.760;9.664;2023-06-24T12:51:18;10.40;;;4.90;;
2538;SDS011;1280;49.760;9.664;2023-06-24T12:53:46;6.43;;;3.70;;
2538;SDS011;1280;49.760;9.664;2023-06-24T12:56:16;16.27;;;4.67;;
2538;SDS011;1280;49.760;9.664;2023-06-24T12:58:44;7.10;;;4.40;;
2538;SDS011;1280;49.760;9.664;2023-06-24T13:01:12;8.63;;;4.70;;
2538;SDS011;1280;49.760;9.664;2023-06-24T13:03:42;8.80;;;4.30;;
2538;SDS011;1280;49.760;9.664;2023-06-24T13:06:10;7.40;;;5.00;;
2538;SDS011;1280;49.760;9.664;2023-06-24T13:08:40;9.10;;;4.90;;
2538;SDS011;1280;49.760;9.664;2023-06-24T13:11:10;8.17;;;4.70;;
2538;SDS011;1280;49.760;9.664;2023-06-24T13:13:39;11.40;;;5.50;;
2538;SDS011;1280;49.760;9.664;2023-06-24T13:16:07;6.90;;;4.40;;
2538;SDS011;1280;49.760;9.664;2023-06-24T13:18:35;8.80;;;4.87;;
2538;SDS011;1280;49.760;9.664;2023-06-24T13:21:03;8.43;;;5.07;;
2538;SDS011;1280;49.760;9.664;2023-06-24T13:23:41;6.47;;;4.27;;
2538;SDS011;1280;49.760;9.664;2023-06-24T13:26:09;7.33;;;4.90;;
2538;SDS011;1280;49.760;9.664;2023-06-24T13:28:39;7.70;;;4.57;;
2538;SDS011;1280;49.760;9.664;2023-06-24T13:31:08;6.80;;;4.10;;
2538;SDS011;1280;49.760;9.664;2023-06-24T13:33:36;7.27;;;4.43;;
2538;SDS011;1280;49.760;9.664;2023-06-24T13:36:04;7.27;;;4.80;;
2538;SDS011;1280;49.760;9.664;2023-06-24T13:38:35;8.00;;;4.50;;
2538;SDS011;1280;49.760;9.664;2023-06-24T13:41:03;8.53;;;4.40;;
2538;SDS011;1280;49.760;9.664;2023-06-24T13:43:31;8.13;;;5.10;;
2538;SDS011;1280;49.760;9.664;2023-06-24T13:46:00;6.90;;;4.70;;
2538;SDS011;1280;49.760;9.664;2023-06-24T13:48:30;8.23;;;5.03;;
2538;SDS011;1280;49.760;9.664;2023-06-24T13:50:57;8.20;;;5.10;;
2538;SDS011;1280;49.760;9.664;2023-06-24T13:53:25;8.50;;;5.30;;
2538;SDS011;1280;49.760;9.664;2023-06-24T13:55:53;7.30;;;4.17;;
2538;SDS011;1280;49.760;9.664;2023-06-24T13:58:21;7.77;;;4.90;;
2538;SDS011;1280;49.760;9.664;2023-06-24T14:00:49;7.57;;;4.60;;
2538;SDS011;1280;49.760;9.664;2023-06-24T14:03:19;8.80;;;5.07;;
2538;SDS011;1280;49.760;9.664;2023-06-24T14:05:47;6.67;;;4.00;;
2538;SDS011;1280;49.760;9.664;2023-06-24T14:08:15;7.97;;;4.40;;
2538;SDS011;1280;49.760;9.664;2023-06-24T14:10:43;8.20;;;5.10;;
2538;SDS011;1280;49.760;9.664;2023-06-24T14:13:11;7.33;;;4.17;;
2538;SDS011;1280;49.760;9.664;2023-06-24T14:15:39;8.63;;;4.30;;
2538;SDS011;1280;49.760;9.664;2023-06-24T14:18:07;7.40;;;4.67;;
2538;SDS011;1280;49.760;9.664;2023-06-24T14:20:38;7.23;;;4.30;;
2538;SDS011;1280;49.760;9.664;2023-06-24T14:23:06;7.73;;;4.43;;
2538;SDS011;1280;49.760;9.664;2023-06-24T14:25:34;7.70;;;3.83;;
2538;SDS011;1280;49.760;9.664;2023-06-24T14:28:03;7.27;;;4.50;;
2538;SDS011;1280;49.760;9.664;2023-06-24T14:30:31;7.50;;;4.47;;
2538;SDS011;1280;49.760;9.664;2023-06-24T14:33:02;7.90;;;4.43;;
2538;SDS011;1280;49.760;9.664;2023-06-24T14:35:30;7.30;;;4.50;;
2538;SDS011;1280;49.760;9.664;2023-06-24T14:37:59;7.20;;;4.20;;
2538;SDS011;1280;49.760;9.664;2023-06-24T14:40:27;7.67;;;4.60;;
2538;SDS011;1280;49.760;9.664;2023-06-24T14:42:55;9.00;;;5.03;;
2538;SDS011;1280;49.760;9.664;2023-06-24T14:45:26;9.60;;;4.37;;
2538;SDS011;1280;49.760;9.664;2023-06-24T14:47:55;8.10;;;4.67;;
2538;SDS011;1280;49.760;9.664;2023-06-24T14:50:24;7.27;;;4.90;;
2538;SDS011;1280;49.760;9.664;2023-06-24T14:52:52;10.57;;;4.70;;
2538;SDS011;1280;49.760;9.664;2023-06-24T14:55:21;6.53;;;4.10;;
2538;SDS011;1280;49.760;9.664;2023-06-24T14:57:49;11.40;;;4.83;;
2538;SDS011;1280;49.760;9.664;2023-06-24T15:00:18;8.33;;;4.80;;
2538;SDS011;1280;49.760;9.664;2023-06-24T15:02:46;7.97;;;4.90;;
2538;SDS011;1280;49.760;9.664;2023-06-24T15:05:14;10.13;;;4.83;;
2538;SDS011;1280;49.760;9.664;2023-06-24T15:07:42;7.70;;;4.93;;
2538;SDS011;1280;49.760;9.664;2023-06-24T15:10:10;7.73;;;4.37;;
2538;SDS011;1280;49.760;9.664;2023-06-24T15:12:39;6.63;;;4.57;;
2538;SDS011;1280;49.760;9.664;2023-06-24T15:15:07;7.17;;;4.60;;
2538;SDS011;1280;49.760;9.664;2023-06-24T15:17:36;8.13;;;4.40;;
2538;SDS011;1280;49.760;9.664;2023-06-24T15:20:07;7.10;;;4.43;;
2538;SDS011;1280;49.760;9.664;2023-06-24T15:22:35;7.33;;;4.90;;
2538;SDS011;1280;49.760;9.664;2023-06-24T15:25:04;7.43;;;4.10;;
2538;SDS011;1280;49.760;9.664;2023-06-24T15:27:32;7.73;;;4.30;;
2538;SDS011;1280;49.760;9.664;2023-06-24T15:30:02;7.90;;;4.70;;
2538;SDS011;1280;49.760;9.664;2023-06-24T15:32:30;7.10;;;4.77;;
2538;SDS011;1280;49.760;9.664;2023-06-24T15:35:01;7.03;;;4.43;;
2538;SDS011;1280;49.760;9.664;2023-06-24T15:37:30;6.70;;;4.40;;
2538;SDS011;1280;49.760;9.664;2023-06-24T15:39:59;7.60;;;4.70;;
2538;SDS011;1280;49.760;9.664;2023-06-24T15:42:27;8.90;;;5.00;;
2538;SDS011;1280;49.760;9.664;2023-06-24T15:44:56;8.30;;;4.97;;
2538;SDS011;1280;49.760;9.664;2023-06-24T15:47:25;12.87;;;5.30;;